High Wych Weather

NOAA Style Reports for High Wych, Hertfordshire


Report for 2012 Mar
                   Monthly Climatological Summary for Mar 2012

Name: High Wych Weather   City: High Wych, Sawbridgeworth   State: Herts
Elevation: 72 m  Lat: N 51° 48' 26"   Lon: E 000° 07' 20"

                  Temperature (°C), Rain (mm), Wind Speed (mph)

                                      Heat  Cool        Avg
    Mean                              Deg   Deg         Wind                 Dom
Day Temp  High   Time   Low    Time   Days  Days  Rain  Speed High   Time    Dir
----------------------------------------------------------------------------------
 1  10.4  16.5   00:00   4.2   00:00   0.0   0.0   0.0  ----   5.5   00:00   ---
 2   5.4   8.3   00:00   2.6   00:00   0.0   0.0   0.0  ----   7.8   00:00   ---
 3   9.5  14.9   00:00   4.1   00:00   0.0   0.0   0.0  ----  13.9   00:00   ---
 4   5.8   9.4   00:00   2.2   00:00   0.0   0.0   6.9  ----  18.8   00:00   ---
 5   5.3   7.6   00:00   2.9   00:00   0.0   0.0   6.9  ----  23.6   00:00   ---
 6   4.8   7.6   00:00   2.0   00:00   0.0   0.0   0.3  ----  15.6   00:00   ---
 7   6.2  11.2   00:00   1.1   00:00   0.0   0.0   3.3  ----  19.8   00:00   ---
 8   6.9  12.6   00:00   1.1   00:00   0.0   0.0   3.3  ----  11.4   00:00   ---
 9   7.4  11.6   00:00   3.2   00:00   0.0   0.0   0.0  ----  10.8   00:00   ---
10  11.5  17.3   00:00   5.7   00:00   0.0   0.0   0.0  ----  10.3   00:00   ---
11  10.9  16.9   00:00   5.0   00:00   0.0   0.0   0.0  ----   5.5   00:00   ---
12   6.4  11.3   00:00   1.5   00:00   0.0   0.0   0.0  ----   6.6   00:00   ---
13   7.7  10.2   00:00   5.1   00:00   0.0   0.0   0.0  ----   5.5   00:00   ---
14   7.3  11.9   00:00   2.7   00:00   0.0   0.0   0.0  ----   9.1   00:00   ---
15   9.9  19.0   00:00   0.8   00:00   0.0   0.0   0.0  ----   9.7   00:00   ---
16   8.7  10.4   00:00   7.0   05:32   0.0   0.0   0.0  ----  11.4   00:00   ---
17   9.0  11.9   00:00   6.1   00:00   0.0   0.0   1.5  ----  10.3   00:00   ---
18   4.9   9.5   00:00   0.3   00:00   0.0   0.0   1.5  ----  11.4   00:00   ---
19   6.3  14.6   00:00  -2.0   00:00   0.0   0.0   0.3  ----  10.3   00:00   ---
20   8.9  17.8   00:00   0.0   00:00   0.0   0.0   0.3  ----   7.2   00:00   ---
21  10.6  17.5   00:00   3.6   00:00   0.0   0.0   0.0  ----  11.4   00:00   ---
22  10.6  18.2   00:00   3.0   00:00   0.0   0.0   0.0  ----  13.9   00:00   ---
23  12.7  20.4   00:00   5.0   00:00   0.0   0.0   0.0  ----   6.6   00:00   ---
24  10.7  20.5   00:00   0.9   00:00   0.0   0.0   0.0  ----   9.7   00:00   ---
25  10.3  17.2   00:00   3.3   00:00   0.0   0.0   0.0  ----   9.1   00:00   ---
26   9.7  19.4   00:00  -0.1   00:00   0.0   0.0   0.0  ----  11.4   00:00   ---
27  10.4  20.1   00:00   0.6   00:00   0.0   0.0   0.0  ----   9.1   00:00   ---
28  11.4  22.4   15:09   0.5   00:00   0.0   0.0   0.0  ----   7.8   00:00   ---
29  11.1  20.0   00:00   2.2   00:00   0.0   0.0   0.0  ----  13.9   00:00   ---
30  12.2  20.2   00:00   4.2   00:00   0.0   0.0   0.0  ----   7.2   00:00   ---
31   7.0  11.0   00:00   3.0   00:00   0.0   0.0   0.0  ----  20.5   00:00   ---
----------------------------------------------------------------------------------
     8.7  22.4    28    -2.0    19     0.0   0.0  24.3  ----  23.6     5     ---

Max >=  27.0:  0
Max <=   0.0:  0
Min <=   0.0:  3
Min <=  -5.0:  0
Max Rain: 6.9 on day 4
Days of Rain: 9 (>= 0.2 mm)  4 (>= 2.0 mm)  0 (>= 15.0 mm)
Heat Base: 15.0  Cool Base: 15.0  Method: Integration
:now::gauges::console::today/yesterday::month/year::records: noaa reports::annual data::wind map::monthly records::trends::longrange forecast::rainfall radar::webcam